Eendracht — PDVN — position and weather

sailwx.info

Track history (hours):
 
Tides and Currents Weather Stations Pressure Air Temp Water Temp Dewpoint Dewpoint Depression Visibility Wind Speed Wind Dir Waves Ship Positions

Eendracht (Netherlands)

Last reported at 2017-Jul-26 06:29 UTC. Time now 2017-Jul-26 06:30 UTC.
Position N 56°10' E 015°36'.

Length 59 m; beam 12 m; draft 5 m.

Type: Sailing vessel. MMSI: 244543000.

Date/timePositionNaut miles runAvg speedWind from/ knotsBaromVisibWave heightAir tempDewpointWater temp
2017-Jul-26 06:29N 56°10' E 015°36'0 0.0
2017-Jul-26 05:59N 56°10' E 015°36'0 0.0
2017-Jul-26 05:29N 56°10' E 015°36'0 0.0
2017-Jul-26 04:59N 56°10' E 015°36'0 0.0
2017-Jul-26 04:29N 56°10' E 015°36'0 0.0
2017-Jul-26 03:59N 56°10' E 015°36'0 0.0
2017-Jul-26 03:29N 56°10' E 015°36'0 0.0
2017-Jul-26 02:59N 56°10' E 015°36'0 0.0
2017-Jul-26 02:29N 56°10' E 015°36'0 0.0
2017-Jul-26 01:59N 56°10' E 015°36'0 0.0
2017-Jul-26 01:29N 56°10' E 015°36'0 0.0
2017-Jul-26 00:59N 56°10' E 015°36'0 0.0
2017-Jul-26 00:29N 56°10' E 015°36'0 0.0
2017-Jul-25 23:59N 56°10' E 015°36'0 0.0
2017-Jul-25 23:29N 56°10' E 015°36'0 0.0
2017-Jul-25 22:59N 56°10' E 015°36'0 0.0
2017-Jul-25 22:29N 56°10' E 015°36'0 0.0
2017-Jul-25 21:59N 56°10' E 015°36'0 0.0
2017-Jul-25 21:29N 56°10' E 015°36'0 0.0
2017-Jul-25 20:59N 56°10' E 015°36'0 0.0
2017-Jul-25 20:29N 56°10' E 015°36'0 0.0
2017-Jul-25 19:59N 56°10' E 015°36'0 0.0
2017-Jul-25 19:29N 56°10' E 015°36'0 0.0
2017-Jul-25 18:59N 56°10' E 015°36'0 0.0
2017-Jul-25 18:29N 56°10' E 015°36'0 0.0
2017-Jul-25 17:59N 56°10' E 015°36'0 0.0
2017-Jul-25 17:29N 56°10' E 015°36'0 0.0
2017-Jul-25 16:59N 56°10' E 015°36'0 0.0
2017-Jul-25 16:29N 56°10' E 015°36'0 0.0
2017-Jul-25 15:59N 56°10' E 015°36'0 0.0
2017-Jul-25 15:29N 56°10' E 015°36'0 0.0
2017-Jul-25 14:59N 56°10' E 015°36'0 0.0
2017-Jul-25 13:59N 56°10' E 015°36'0 0.0
2017-Jul-25 13:29N 56°10' E 015°36'0 0.0
2017-Jul-25 12:59N 56°10' E 015°36'0 0.0
2017-Jul-25 12:29N 56°10' E 015°36'0 0.0
2017-Jul-25 11:59N 56°10' E 015°36'0 0.0
2017-Jul-25 11:29N 56°10' E 015°36'0 0.0
2017-Jul-25 10:59N 56°10' E 015°36'0 0.0
2017-Jul-25 10:29N 56°10' E 015°36'0 0.0
2017-Jul-25 09:59N 56°10' E 015°36'0 0.0
2017-Jul-25 09:29N 56°10' E 015°36'0 0.0
2017-Jul-25 08:59N 56°10' E 015°36'0 0.0
2017-Jul-25 08:29N 56°10' E 015°36'0 0.0
2017-Jul-25 07:59N 56°10' E 015°36'0 0.0
2017-Jul-25 07:29N 56°10' E 015°36'0 0.0
2017-Jul-25 06:59N 56°10' E 015°36'1 1.3
2017-Jul-25 06:30N 56°10' E 015°37'3 6.1
2017-Jul-25 06:00N 56°07' E 015°35'3 6.2
2017-Jul-25 05:30N 56°04' E 015°34'3 5.5
2017-Jul-25 05:00N 56°01' E 015°32'3 6.8
2017-Jul-25 04:30N 55°58' E 015°32'3 5.9
2017-Jul-25 04:00N 55°55' E 015°31'2 3.5
2017-Jul-25 03:30N 55°54' E 015°28'2 4.9
2017-Jul-25 03:00N 55°54' E 015°24'2 4.8
2017-Jul-25 02:30N 55°54' E 015°19'3 5.8
2017-Jul-25 02:00N 55°54' E 015°14'3 5.3
2017-Jul-25 01:30N 55°54' E 015°09'3 5.4
2017-Jul-25 01:00N 55°53' E 015°05'3 5.2
2017-Jul-25 00:30N 55°52' E 015°00'1 1.3
2017-Jul-25 00:00N 55°52' E 014°59'2 3.7
2017-Jul-24 23:30N 55°51' E 015°01'2 4.1
2017-Jul-24 23:00N 55°50' E 015°04'2 4.2
2017-Jul-24 22:30N 55°48' E 015°06'2 3.7
2017-Jul-24 22:00N 55°47' E 015°08'2 3.4
2017-Jul-24 21:30N 55°45' E 015°10'2 3.1
2017-Jul-24 21:00N 55°44' E 015°11'2 3.7
2017-Jul-24 20:30N 55°42' E 015°12'3 5.6
2017-Jul-24 20:00N 55°39' E 015°13'4 8.3
2017-Jul-24 19:30N 55°35' E 015°16'4 8.0
2017-Jul-24 19:00N 55°32' E 015°19'3 6.8
2017-Jul-24 18:30N 55°29' E 015°22'2 4.8
2017-Jul-24 18:00N 55°27' E 015°24'2 4.4
2017-Jul-24 17:30N 55°24' E 015°24'1 2.9
2017-Jul-24 17:00N 55°23' E 015°22'2 4.9
2017-Jul-24 16:30N 55°22' E 015°19'2 4.9
2017-Jul-24 16:00N 55°20' E 015°16'3 1.0
2017-Jul-24 12:58N 55°19' E 015°11'0 0.0
2017-Jul-24 12:28N 55°19' E 015°11'0 0.0
2017-Jul-24 11:58N 55°19' E 015°11'0 0.0
2017-Jul-24 11:28N 55°19' E 015°11'0 0.0
2017-Jul-24 10:58N 55°19' E 015°11'0 0.0
2017-Jul-24 10:28N 55°19' E 015°11'0 0.0
2017-Jul-24 09:58N 55°19' E 015°11'0 0.0
2017-Jul-24 09:28N 55°19' E 015°11'0 0.0
2017-Jul-24 09:01N 55°19' E 015°11'0 0.0
2017-Jul-24 08:30N 55°19' E 015°11'0 0.8
2017-Jul-24 08:01N 55°19' E 015°10'3 6.6
2017-Jul-24 07:31N 55°20' E 015°04'3 6.3
2017-Jul-24 07:00N 55°20' E 014°59'3 6.4
2017-Jul-24 06:30N 55°21' E 014°53'3 6.3
2017-Jul-24 06:00N 55°22' E 014°48'3 6.2
2017-Jul-24 05:30N 55°22' E 014°43'3 5.4
2017-Jul-24 05:00N 55°22' E 014°38'3 6.0
2017-Jul-24 04:30N 55°19' E 014°35'3 5.9
2017-Jul-24 04:00N 55°18' E 014°31'3 6.1
2017-Jul-24 03:31N 55°15' E 014°27'3 6.1
2017-Jul-24 03:00N 55°13' E 014°23'3 6.2
2017-Jul-24 02:31N 55°12' E 014°18'3 6.7
2017-Jul-24 02:00N 55°11' E 014°12'3 6.5
2017-Jul-24 01:31N 55°10' E 014°07'3 6.6
2017-Jul-24 01:00N 55°10' E 014°01'3 6.6
2017-Jul-24 00:30N 55°09' E 013°56'3 6.4
2017-Jul-24 00:01N 55°09' E 013°50'3 6.5
2017-Jul-23 23:30N 55°08' E 013°44'3 6.6
2017-Jul-23 23:01N 55°08' E 013°39'3 6.3
2017-Jul-23 22:28N 55°07' E 013°33'3 6.6
2017-Jul-23 21:58N 55°07' E 013°27'5 7.0
2017-Jul-23 21:14N 55°07' E 013°18'2 6.9
2017-Jul-23 20:59N 55°06' E 013°15'3 7.0
2017-Jul-23 20:30N 55°06' E 013°09'3 6.9
2017-Jul-23 20:00N 55°05' E 013°03'3 6.8
2017-Jul-23 19:30N 55°05' E 012°58'3 6.6
2017-Jul-23 18:59N 55°05' E 012°52'3 6.6
2017-Jul-23 18:30N 55°06' E 012°46'2 3.9
2017-Jul-23 18:00N 55°06' E 012°43'1 2.5
2017-Jul-23 17:31N 55°05' E 012°40'2 3.3
2017-Jul-23 17:00N 55°07' E 012°39'1 2.0
2017-Jul-23 16:30N 55°08' E 012°39'1 2.7
2017-Jul-23 16:00N 55°09' E 012°38'1 2.7
2017-Jul-23 15:30N 55°11' E 012°38'1 2.7
2017-Jul-23 15:01N 55°12' E 012°38'2 3.5
2017-Jul-23 14:30N 55°14' E 012°37'2 3.3
2017-Jul-23 14:00N 55°15' E 012°37'2 3.2
2017-Jul-23 13:30N 55°17' E 012°36'1 2.9
2017-Jul-23 13:01N 55°18' E 012°36'2 3.3
2017-Jul-23 12:31N 55°20' E 012°37'2 4.0
2017-Jul-23 12:01N 55°22' E 012°37'3 5.4
2017-Jul-23 11:31N 55°24' E 012°38'3 5.0
2017-Jul-23 11:01N 55°27' E 012°40'2 4.8
2017-Jul-23 10:31N 55°29' E 012°41'2 4.1
2017-Jul-23 10:00N 55°31' E 012°42'2 4.3
2017-Jul-23 09:31N 55°33' E 012°42'3 5.3
2017-Jul-23 09:00N 55°36' E 012°42'2 4.8
2017-Jul-23 08:31N 55°38' E 012°42'2 3.6
2017-Jul-23 08:01N 55°40' E 012°41'2 4.1
2017-Jul-23 07:31N 55°42' E 012°41'2 3.4
2017-Jul-23 07:01N 55°43' E 012°39'2 4.8
2017-Jul-23 06:31N 55°42' E 012°36'1 1.4
2017-Jul-23 05:58N 55°41' E 012°36'0 0.0
2017-Jul-23 05:28N 55°41' E 012°36'0 0.0
2017-Jul-23 04:58N 55°41' E 012°36'0 0.0
2017-Jul-23 04:28N 55°41' E 012°36'0 0.0
2017-Jul-23 03:58N 55°41' E 012°36'0 0.0
2017-Jul-23 03:28N 55°41' E 012°36'0 0.0
2017-Jul-23 02:58N 55°41' E 012°36'0 0.0
2017-Jul-23 02:28N 55°41' E 012°36'0 0.0
2017-Jul-23 01:58N 55°41' E 012°36'0 0.0
2017-Jul-23 01:28N 55°41' E 012°36'0 0.0
2017-Jul-23 00:58N 55°41' E 012°36'0 0.0
2017-Jul-23 00:28N 55°41' E 012°36'0 0.0
2017-Jul-22 23:58N 55°41' E 012°36'0 0.0
2017-Jul-22 23:28N 55°41' E 012°36'0 0.0
2017-Jul-22 22:58N 55°41' E 012°36'0 0.0
2017-Jul-22 22:28N 55°41' E 012°36'0 0.0
2017-Jul-22 21:58N 55°41' E 012°36'0 0.0
2017-Jul-22 21:28N 55°41' E 012°36'0 0.0
2017-Jul-22 20:58N 55°41' E 012°36'0 0.0
2017-Jul-22 20:28N 55°41' E 012°36'0 0.0
2017-Jul-22 19:58N 55°41' E 012°36'0 0.0
2017-Jul-22 19:28N 55°41' E 012°36'0 0.0
2017-Jul-22 18:58N 55°41' E 012°36'0 0.0
2017-Jul-22 18:28N 55°41' E 012°36'0 0.0
2017-Jul-22 17:58N 55°41' E 012°36'0 0.0
2017-Jul-22 17:28N 55°41' E 012°36'0 0.0
2017-Jul-22 16:58N 55°41' E 012°36'0 0.0
2017-Jul-22 16:28N 55°41' E 012°36'0 0.0
2017-Jul-22 15:58N 55°41' E 012°36'0 0.0
2017-Jul-22 15:28N 55°41' E 012°36'0 0.0
2017-Jul-22 14:58N 55°41' E 012°36'0 0.0
2017-Jul-22 13:58N 55°41' E 012°36'0 0.0
2017-Jul-22 13:28N 55°41' E 012°36'0 0.0
2017-Jul-22 12:58N 55°41' E 012°36'0 0.0
2017-Jul-22 12:28N 55°41' E 012°36'0 0.0
2017-Jul-22 11:58N 55°41' E 012°36'0 0.0
2017-Jul-22 11:28N 55°41' E 012°36'0 0.0
2017-Jul-22 10:58N 55°41' E 012°36'0 0.0
2017-Jul-22 10:28N 55°41' E 012°36'0 0.0
2017-Jul-22 10:01N 55°41' E 012°36'0 0.0
2017-Jul-22 09:31N 55°41' E 012°36'0 0.0
2017-Jul-22 09:00N 55°41' E 012°36'0 0.0
2017-Jul-22 08:30N 55°41' E 012°36'0 0.0
2017-Jul-22 08:00N 55°41' E 012°36'0 0.0
2017-Jul-22 07:30N 55°41' E 012°36'0 0.0
2017-Jul-22 07:00N 55°41' E 012°36'0 0.0
2017-Jul-22 06:30N 55°41' E 012°36'0 0.0
2017-Jul-22 06:00N 55°41' E 012°36'0 0.0
2017-Jul-22 05:30N 55°41' E 012°36'0 0.0
2017-Jul-22 05:00N 55°41' E 012°36'0 0.0
2017-Jul-22 04:30N 55°41' E 012°36'0 0.0
2017-Jul-22 04:00N 55°41' E 012°36'0 0.0
2017-Jul-22 03:30N 55°41' E 012°36'0 0.0
2017-Jul-22 03:00N 55°41' E 012°36'0 0.0
2017-Jul-22 02:30N 55°41' E 012°36'0 0.0
2017-Jul-22 02:00N 55°41' E 012°36'0 0.0
2017-Jul-22 01:30N 55°41' E 012°36'0 0.0
2017-Jul-22 01:00N 55°41' E 012°36'0 0.0
2017-Jul-22 00:30N 55°41' E 012°36'0 0.0
2017-Jul-22 00:00N 55°41' E 012°36'0 0.0
2017-Jul-21 23:30N 55°41' E 012°36'0 0.0
2017-Jul-21 23:00N 55°41' E 012°36'0 0.0
2017-Jul-21 22:30N 55°41' E 012°36'0 0.0
2017-Jul-21 22:00N 55°41' E 012°36'0 0.0
2017-Jul-21 21:30N 55°41' E 012°36'0 0.0
2017-Jul-21 21:00N 55°41' E 012°36'0 0.0
2017-Jul-21 20:30N 55°41' E 012°36'0 0.0
2017-Jul-21 20:00N 55°41' E 012°36'0 0.0
2017-Jul-21 19:30N 55°41' E 012°36'0 0.0
2017-Jul-21 19:00N 55°41' E 012°36'0 0.0
2017-Jul-21 18:30N 55°41' E 012°36'0 0.0
2017-Jul-21 18:00N 55°41' E 012°36'0 0.0
2017-Jul-21 17:30N 55°41' E 012°36'0 0.0
2017-Jul-21 17:00N 55°41' E 012°36'0 0.0
2017-Jul-21 16:30N 55°41' E 012°36'0 0.0
2017-Jul-21 16:00N 55°41' E 012°36'0 0.0
2017-Jul-21 15:30N 55°41' E 012°36'0 0.0
2017-Jul-21 15:00N 55°41' E 012°36'0 0.0
2017-Jul-21 14:30N 55°41' E 012°36'0 0.0
2017-Jul-21 14:00N 55°41' E 012°36'0 0.0
2017-Jul-21 13:30N 55°41' E 012°36'0 0.0
2017-Jul-21 13:00N 55°41' E 012°36'0 0.0
2017-Jul-21 12:30N 55°41' E 012°36'0 0.0
2017-Jul-21 12:00N 55°41' E 012°36'0 0.0
2017-Jul-21 11:30N 55°41' E 012°36'0 0.0
2017-Jul-21 11:00N 55°41' E 012°36'0 0.0
2017-Jul-21 10:30N 55°41' E 012°36'0 0.0
2017-Jul-21 10:00N 55°41' E 012°36'0 0.0
2017-Jul-21 09:30N 55°41' E 012°36'0 0.0
2017-Jul-21 09:00N 55°41' E 012°36'0 0.0
2017-Jul-21 08:30N 55°41' E 012°36'0 0.2
2017-Jul-21 08:01N 55°41' E 012°36'2 4.1
2017-Jul-21 07:31N 55°43' E 012°38'2 4.7
2017-Jul-21 07:01N 55°45' E 012°40'3 5.3
2017-Jul-21 06:31N 55°48' E 012°40'3 6.6
2017-Jul-21 06:00N 55°51' E 012°40'3 6.5
2017-Jul-21 05:31N 55°54' E 012°39'3 6.7
2017-Jul-21 05:01N 55°57' E 012°40'3 6.6
2017-Jul-21 04:30N 56°01' E 012°40'3 5.6
2017-Jul-21 04:01N 56°03' E 012°38'2 4.5
2017-Jul-21 03:31N 56°05' E 012°35'2 3.4
2017-Jul-21 03:01N 56°06' E 012°33'2 3.2
2017-Jul-21 02:31N 56°07' E 012°30'2 3.4
2017-Jul-21 02:01N 56°08' E 012°28'2 4.5
2017-Jul-21 01:31N 56°09' E 012°24'3 5.3
2017-Jul-21 01:01N 56°10' E 012°20'3 5.1
2017-Jul-21 00:30N 56°11' E 012°16'3 4.9
2017-Jul-20 23:59N 56°12' E 012°12'2 4.4
2017-Jul-20 23:28N 56°13' E 012°08'2 4.5
2017-Jul-20 23:00N 56°13' E 012°04'2 4.5
2017-Jul-20 22:30N 56°13' E 011°60'2 4.1
2017-Jul-20 22:01N 56°13' E 011°56'2 4.5
2017-Jul-20 21:28N 56°14' E 011°52'3 5.1
2017-Jul-20 20:57N 56°14' E 011°47'6 4.5
2017-Jul-20 19:42N 56°15' E 011°37'1 4.5
2017-Jul-20 19:22N 56°14' E 011°35'2 4.6
2017-Jul-20 18:55N 56°14' E 011°31'1 3.2
2017-Jul-20 18:29N 56°14' E 011°29'1 2.4
2017-Jul-20 18:00N 56°15' E 011°28'20 6.6
2017-Jul-20 14:53N 56°33' E 011°46'6 6.6
2017-Jul-20 13:57N 56°39' E 011°52'5 5.8
2017-Jul-20 13:08N 56°43' E 011°55'1 6.2
2017-Jul-20 12:59N 56°44' E 011°56'11 5.1
2017-Jul-20 10:52N 56°54' E 012°04'1 3.3
2017-Jul-20 10:28N 56°55' E 012°05'2 3.1
2017-Jul-20 09:50N 56°57' E 012°07'4 4.0
2017-Jul-20 08:47N 57°00' E 012°11'3 2.8
2017-Jul-20 07:51N 57°03' E 012°12'2 0.9
2017-Jul-20 05:30N 57°05' E 012°14'0 0.0
2017-Jul-20 05:00N 57°05' E 012°14'0 0.0
2017-Jul-20 04:21N 57°05' E 012°14'0 0.0
2017-Jul-20 03:54N 57°05' E 012°14'0 0.0
2017-Jul-20 03:27N 57°05' E 012°14'0 0.0
2017-Jul-20 02:57N 57°05' E 012°14'0 0.0
2017-Jul-19 23:12N 57°05' E 012°14'0 0.0
2017-Jul-19 23:00N 57°05' E 012°14'0 0.0
2017-Jul-19 22:30N 57°05' E 012°14'0 0.0
2017-Jul-19 22:00N 57°05' E 012°14'0 0.0
2017-Jul-19 21:30N 57°05' E 012°14'0 0.0
2017-Jul-19 21:00N 57°05' E 012°14'0 0.0
2017-Jul-19 20:30N 57°05' E 012°14'0 0.0
2017-Jul-19 19:57N 57°05' E 012°14'0 0.0
2017-Jul-19 19:30N 57°05' E 012°14'0 0.0
2017-Jul-19 19:00N 57°05' E 012°14'0 0.0
2017-Jul-19 18:30N 57°05' E 012°14'0 0.0
2017-Jul-19 17:42N 57°05' E 012°14'0 0.1
2017-Jul-19 17:30N 57°05' E 012°14'8 0.5
2017-Jul-19 00:40N 57°08' E 011°60'1 2.8
2017-Jul-19 00:23N 57°08' E 011°59'3 3.0
2017-Jul-18 23:24N 57°11' E 011°56'2 4.2
2017-Jul-18 22:55N 57°12' E 011°54'2 3.9
2017-Jul-18 22:24N 57°14' E 011°52'1 3.5
2017-Jul-18 22:00N 57°16' E 011°51'2 4.5
2017-Jul-18 21:30N 57°17' E 011°49'2 4.1
2017-Jul-18 20:59N 57°19' E 011°46'2 4.9
2017-Jul-18 20:30N 57°21' E 011°43'2 4.1
2017-Jul-18 20:00N 57°22' E 011°41'2 4.3
2017-Jul-18 19:30N 57°24' E 011°38'2 4.8
2017-Jul-18 19:00N 57°26' E 011°35'2 4.8
2017-Jul-18 18:30N 57°27' E 011°32'3 5.3
2017-Jul-18 18:00N 57°30' E 011°29'3 5.6
2017-Jul-18 17:30N 57°32' E 011°26'3 6.5
2017-Jul-18 17:00N 57°34' E 011°22'3 6.3
2017-Jul-18 16:29N 57°36' E 011°17'4 7.1
2017-Jul-18 15:59N 57°39' E 011°13'4 7.7
2017-Jul-18 15:29N 57°42' E 011°08'4 8.8
2017-Jul-18 15:00N 57°45' E 011°03'10 9.3
2017-Jul-18 13:58N 57°53' E 010°52'6 9.6
2017-Jul-18 13:21N 57°57' E 010°45'4 9.1
2017-Jul-18 12:56N 58°00' E 010°40'5 8.5
2017-Jul-18 12:22N 58°04' E 010°34'7 7.9
2017-Jul-18 11:30N 58°09' E 010°26'4 7.5
2017-Jul-18 10:57N 58°12' E 010°21'15 4.7
2017-Jul-18 07:48N 58°23' E 010°01'2 5.5
2017-Jul-18 07:30N 58°21' E 009°60'180 7.7
2017-Jul-17 08:08N 56°01' E 006°29'2 8.3
2017-Jul-17 07:53N 55°60' E 006°27'3 8.9
2017-Jul-17 07:30N 55°57' E 006°24'4 8.0
2017-Jul-17 06:59N 55°53' E 006°20'4 8.0
2017-Jul-17 06:29N 55°50' E 006°16'  
Track history (hours):
 
Tides and Currents Weather Stations Pressure Air Temp Water Temp Dewpoint Dewpoint Depression Visibility Wind Speed Wind Dir Waves Ship Positions

Eendracht (Netherlands)

Last reported at 2017-Jul-26 06:29 UTC. Time now 2017-Jul-26 06:30 UTC.
Position N 56°10' E 015°36'.

Length 59 m; beam 12 m; draft 5 m.

Type: Sailing vessel. MMSI: 244543000.

Date/timePositionNaut miles runAvg speedWind from/ knotsBaromVisibWave heightAir tempDewpointWater temp
2017-Jul-26 06:29N 56°10' E 015°36'0 0.0
2017-Jul-26 05:59N 56°10' E 015°36'0 0.0
2017-Jul-26 05:29N 56°10' E 015°36'0 0.0
2017-Jul-26 04:59N 56°10' E 015°36'0 0.0
2017-Jul-26 04:29N 56°10' E 015°36'0 0.0
2017-Jul-26 03:59N 56°10' E 015°36'0 0.0
2017-Jul-26 03:29N 56°10' E 015°36'0 0.0
2017-Jul-26 02:59N 56°10' E 015°36'0 0.0
2017-Jul-26 02:29N 56°10' E 015°36'0 0.0
2017-Jul-26 01:59N 56°10' E 015°36'0 0.0
2017-Jul-26 01:29N 56°10' E 015°36'0 0.0
2017-Jul-26 00:59N 56°10' E 015°36'0 0.0
2017-Jul-26 00:29N 56°10' E 015°36'0 0.0
2017-Jul-25 23:59N 56°10' E 015°36'0 0.0
2017-Jul-25 23:29N 56°10' E 015°36'0 0.0
2017-Jul-25 22:59N 56°10' E 015°36'0 0.0
2017-Jul-25 22:29N 56°10' E 015°36'0 0.0
2017-Jul-25 21:59N 56°10' E 015°36'0 0.0
2017-Jul-25 21:29N 56°10' E 015°36'0 0.0
2017-Jul-25 20:59N 56°10' E 015°36'0 0.0
2017-Jul-25 20:29N 56°10' E 015°36'0 0.0
2017-Jul-25 19:59N 56°10' E 015°36'0 0.0
2017-Jul-25 19:29N 56°10' E 015°36'0 0.0
2017-Jul-25 18:59N 56°10' E 015°36'0 0.0
2017-Jul-25 18:29N 56°10' E 015°36'0 0.0
2017-Jul-25 17:59N 56°10' E 015°36'0 0.0
2017-Jul-25 17:29N 56°10' E 015°36'0 0.0
2017-Jul-25 16:59N 56°10' E 015°36'0 0.0
2017-Jul-25 16:29N 56°10' E 015°36'0 0.0
2017-Jul-25 15:59N 56°10' E 015°36'0 0.0
2017-Jul-25 15:29N 56°10' E 015°36'0 0.0
2017-Jul-25 14:59N 56°10' E 015°36'0 0.0
2017-Jul-25 13:59N 56°10' E 015°36'0 0.0
2017-Jul-25 13:29N 56°10' E 015°36'0 0.0
2017-Jul-25 12:59N 56°10' E 015°36'0 0.0
2017-Jul-25 12:29N 56°10' E 015°36'0 0.0
2017-Jul-25 11:59N 56°10' E 015°36'0 0.0
2017-Jul-25 11:29N 56°10' E 015°36'0 0.0
2017-Jul-25 10:59N 56°10' E 015°36'0 0.0
2017-Jul-25 10:29N 56°10' E 015°36'0 0.0
2017-Jul-25 09:59N 56°10' E 015°36'0 0.0
2017-Jul-25 09:29N 56°10' E 015°36'0 0.0
2017-Jul-25 08:59N 56°10' E 015°36'0 0.0
2017-Jul-25 08:29N 56°10' E 015°36'0 0.0
2017-Jul-25 07:59N 56°10' E 015°36'0 0.0
2017-Jul-25 07:29N 56°10' E 015°36'0 0.0
2017-Jul-25 06:59N 56°10' E 015°36'1 1.3
2017-Jul-25 06:30N 56°10' E 015°37'3 6.1
2017-Jul-25 06:00N 56°07' E 015°35'3 6.2
2017-Jul-25 05:30N 56°04' E 015°34'3 5.5
2017-Jul-25 05:00N 56°01' E 015°32'3 6.8
2017-Jul-25 04:30N 55°58' E 015°32'3 5.9
2017-Jul-25 04:00N 55°55' E 015°31'2 3.5
2017-Jul-25 03:30N 55°54' E 015°28'2 4.9
2017-Jul-25 03:00N 55°54' E 015°24'2 4.8
2017-Jul-25 02:30N 55°54' E 015°19'3 5.8
2017-Jul-25 02:00N 55°54' E 015°14'3 5.3
2017-Jul-25 01:30N 55°54' E 015°09'3 5.4
2017-Jul-25 01:00N 55°53' E 015°05'3 5.2
2017-Jul-25 00:30N 55°52' E 015°00'1 1.3
2017-Jul-25 00:00N 55°52' E 014°59'2 3.7
2017-Jul-24 23:30N 55°51' E 015°01'2 4.1
2017-Jul-24 23:00N 55°50' E 015°04'2 4.2
2017-Jul-24 22:30N 55°48' E 015°06'2 3.7
2017-Jul-24 22:00N 55°47' E 015°08'2 3.4
2017-Jul-24 21:30N 55°45' E 015°10'2 3.1
2017-Jul-24 21:00N 55°44' E 015°11'2 3.7
2017-Jul-24 20:30N 55°42' E 015°12'3 5.6
2017-Jul-24 20:00N 55°39' E 015°13'4 8.3
2017-Jul-24 19:30N 55°35' E 015°16'4 8.0
2017-Jul-24 19:00N 55°32' E 015°19'3 6.8
2017-Jul-24 18:30N 55°29' E 015°22'2 4.8
2017-Jul-24 18:00N 55°27' E 015°24'2 4.4
2017-Jul-24 17:30N 55°24' E 015°24'1 2.9
2017-Jul-24 17:00N 55°23' E 015°22'2 4.9
2017-Jul-24 16:30N 55°22' E 015°19'2 4.9
2017-Jul-24 16:00N 55°20' E 015°16'3 1.0
2017-Jul-24 12:58N 55°19' E 015°11'0 0.0
2017-Jul-24 12:28N 55°19' E 015°11'0 0.0
2017-Jul-24 11:58N 55°19' E 015°11'0 0.0
2017-Jul-24 11:28N 55°19' E 015°11'0 0.0
2017-Jul-24 10:58N 55°19' E 015°11'0 0.0
2017-Jul-24 10:28N 55°19' E 015°11'0 0.0
2017-Jul-24 09:58N 55°19' E 015°11'0 0.0
2017-Jul-24 09:28N 55°19' E 015°11'0 0.0
2017-Jul-24 09:01N 55°19' E 015°11'0 0.0
2017-Jul-24 08:30N 55°19' E 015°11'0 0.8
2017-Jul-24 08:01N 55°19' E 015°10'3 6.6
2017-Jul-24 07:31N 55°20' E 015°04'3 6.3
2017-Jul-24 07:00N 55°20' E 014°59'3 6.4
2017-Jul-24 06:30N 55°21' E 014°53'3 6.3
2017-Jul-24 06:00N 55°22' E 014°48'3 6.2
2017-Jul-24 05:30N 55°22' E 014°43'3 5.4
2017-Jul-24 05:00N 55°22' E 014°38'3 6.0
2017-Jul-24 04:30N 55°19' E 014°35'3 5.9
2017-Jul-24 04:00N 55°18' E 014°31'3 6.1
2017-Jul-24 03:31N 55°15' E 014°27'3 6.1
2017-Jul-24 03:00N 55°13' E 014°23'3 6.2
2017-Jul-24 02:31N 55°12' E 014°18'3 6.7
2017-Jul-24 02:00N 55°11' E 014°12'3 6.5
2017-Jul-24 01:31N 55°10' E 014°07'3 6.6
2017-Jul-24 01:00N 55°10' E 014°01'3 6.6
2017-Jul-24 00:30N 55°09' E 013°56'3 6.4
2017-Jul-24 00:01N 55°09' E 013°50'3 6.5
2017-Jul-23 23:30N 55°08' E 013°44'3 6.6
2017-Jul-23 23:01N 55°08' E 013°39'3 6.3
2017-Jul-23 22:28N 55°07' E 013°33'3 6.6
2017-Jul-23 21:58N 55°07' E 013°27'5 7.0
2017-Jul-23 21:14N 55°07' E 013°18'2 6.9
2017-Jul-23 20:59N 55°06' E 013°15'3 7.0
2017-Jul-23 20:30N 55°06' E 013°09'3 6.9
2017-Jul-23 20:00N 55°05' E 013°03'3 6.8
2017-Jul-23 19:30N 55°05' E 012°58'3 6.6
2017-Jul-23 18:59N 55°05' E 012°52'3 6.6
2017-Jul-23 18:30N 55°06' E 012°46'2 3.9
2017-Jul-23 18:00N 55°06' E 012°43'1 2.5
2017-Jul-23 17:31N 55°05' E 012°40'2 3.3
2017-Jul-23 17:00N 55°07' E 012°39'1 2.0
2017-Jul-23 16:30N 55°08' E 012°39'1 2.7
2017-Jul-23 16:00N 55°09' E 012°38'1 2.7
2017-Jul-23 15:30N 55°11' E 012°38'1 2.7
2017-Jul-23 15:01N 55°12' E 012°38'2 3.5
2017-Jul-23 14:30N 55°14' E 012°37'2 3.3
2017-Jul-23 14:00N 55°15' E 012°37'2 3.2
2017-Jul-23 13:30N 55°17' E 012°36'1 2.9
2017-Jul-23 13:01N 55°18' E 012°36'2 3.3
2017-Jul-23 12:31N 55°20' E 012°37'2 4.0
2017-Jul-23 12:01N 55°22' E 012°37'3 5.4
2017-Jul-23 11:31N 55°24' E 012°38'3 5.0
2017-Jul-23 11:01N 55°27' E 012°40'2 4.8
2017-Jul-23 10:31N 55°29' E 012°41'2 4.1
2017-Jul-23 10:00N 55°31' E 012°42'2 4.3
2017-Jul-23 09:31N 55°33' E 012°42'3 5.3
2017-Jul-23 09:00N 55°36' E 012°42'2 4.8
2017-Jul-23 08:31N 55°38' E 012°42'2 3.6
2017-Jul-23 08:01N 55°40' E 012°41'2 4.1
2017-Jul-23 07:31N 55°42' E 012°41'2 3.4
2017-Jul-23 07:01N 55°43' E 012°39'2 4.8
2017-Jul-23 06:31N 55°42' E 012°36'1 1.4
2017-Jul-23 05:58N 55°41' E 012°36'0 0.0
2017-Jul-23 05:28N 55°41' E 012°36'0 0.0
2017-Jul-23 04:58N 55°41' E 012°36'0 0.0
2017-Jul-23 04:28N 55°41' E 012°36'0 0.0
2017-Jul-23 03:58N 55°41' E 012°36'0 0.0
2017-Jul-23 03:28N 55°41' E 012°36'0 0.0
2017-Jul-23 02:58N 55°41' E 012°36'0 0.0
2017-Jul-23 02:28N 55°41' E 012°36'0 0.0
2017-Jul-23 01:58N 55°41' E 012°36'0 0.0
2017-Jul-23 01:28N 55°41' E 012°36'0 0.0
2017-Jul-23 00:58N 55°41' E 012°36'0 0.0
2017-Jul-23 00:28N 55°41' E 012°36'0 0.0
2017-Jul-22 23:58N 55°41' E 012°36'0 0.0
2017-Jul-22 23:28N 55°41' E 012°36'0 0.0
2017-Jul-22 22:58N 55°41' E 012°36'0 0.0
2017-Jul-22 22:28N 55°41' E 012°36'0 0.0
2017-Jul-22 21:58N 55°41' E 012°36'0 0.0
2017-Jul-22 21:28N 55°41' E 012°36'0 0.0
2017-Jul-22 20:58N 55°41' E 012°36'0 0.0
2017-Jul-22 20:28N 55°41' E 012°36'0 0.0
2017-Jul-22 19:58N 55°41' E 012°36'0 0.0
2017-Jul-22 19:28N 55°41' E 012°36'0 0.0
2017-Jul-22 18:58N 55°41' E 012°36'0 0.0
2017-Jul-22 18:28N 55°41' E 012°36'0 0.0
2017-Jul-22 17:58N 55°41' E 012°36'0 0.0
2017-Jul-22 17:28N 55°41' E 012°36'0 0.0
2017-Jul-22 16:58N 55°41' E 012°36'0 0.0
2017-Jul-22 16:28N 55°41' E 012°36'0 0.0
2017-Jul-22 15:58N 55°41' E 012°36'0 0.0
2017-Jul-22 15:28N 55°41' E 012°36'0 0.0
2017-Jul-22 14:58N 55°41' E 012°36'0 0.0
2017-Jul-22 13:58N 55°41' E 012°36'0 0.0
2017-Jul-22 13:28N 55°41' E 012°36'0 0.0
2017-Jul-22 12:58N 55°41' E 012°36'0 0.0
2017-Jul-22 12:28N 55°41' E 012°36'0 0.0
2017-Jul-22 11:58N 55°41' E 012°36'0 0.0
2017-Jul-22 11:28N 55°41' E 012°36'0 0.0
2017-Jul-22 10:58N 55°41' E 012°36'0 0.0
2017-Jul-22 10:28N 55°41' E 012°36'0 0.0
2017-Jul-22 10:01N 55°41' E 012°36'0 0.0
2017-Jul-22 09:31N 55°41' E 012°36'0 0.0
2017-Jul-22 09:00N 55°41' E 012°36'0 0.0
2017-Jul-22 08:30N 55°41' E 012°36'0 0.0
2017-Jul-22 08:00N 55°41' E 012°36'0 0.0
2017-Jul-22 07:30N 55°41' E 012°36'0 0.0
2017-Jul-22 07:00N 55°41' E 012°36'0 0.0
2017-Jul-22 06:30N 55°41' E 012°36'0 0.0
2017-Jul-22 06:00N 55°41' E 012°36'0 0.0
2017-Jul-22 05:30N 55°41' E 012°36'0 0.0
2017-Jul-22 05:00N 55°41' E 012°36'0 0.0
2017-Jul-22 04:30N 55°41' E 012°36'0 0.0
2017-Jul-22 04:00N 55°41' E 012°36'0 0.0
2017-Jul-22 03:30N 55°41' E 012°36'0 0.0
2017-Jul-22 03:00N 55°41' E 012°36'0 0.0
2017-Jul-22 02:30N 55°41' E 012°36'0 0.0
2017-Jul-22 02:00N 55°41' E 012°36'0 0.0
2017-Jul-22 01:30N 55°41' E 012°36'0 0.0
2017-Jul-22 01:00N 55°41' E 012°36'0 0.0
2017-Jul-22 00:30N 55°41' E 012°36'0 0.0
2017-Jul-22 00:00N 55°41' E 012°36'0 0.0
2017-Jul-21 23:30N 55°41' E 012°36'0 0.0
2017-Jul-21 23:00N 55°41' E 012°36'0 0.0
2017-Jul-21 22:30N 55°41' E 012°36'0 0.0
2017-Jul-21 22:00N 55°41' E 012°36'0 0.0
2017-Jul-21 21:30N 55°41' E 012°36'0 0.0
2017-Jul-21 21:00N 55°41' E 012°36'0 0.0
2017-Jul-21 20:30N 55°41' E 012°36'0 0.0
2017-Jul-21 20:00N 55°41' E 012°36'0 0.0
2017-Jul-21 19:30N 55°41' E 012°36'0 0.0
2017-Jul-21 19:00N 55°41' E 012°36'0 0.0
2017-Jul-21 18:30N 55°41' E 012°36'0 0.0
2017-Jul-21 18:00N 55°41' E 012°36'0 0.0
2017-Jul-21 17:30N 55°41' E 012°36'0 0.0
2017-Jul-21 17:00N 55°41' E 012°36'0 0.0
2017-Jul-21 16:30N 55°41' E 012°36'0 0.0
2017-Jul-21 16:00N 55°41' E 012°36'0 0.0
2017-Jul-21 15:30N 55°41' E 012°36'0 0.0
2017-Jul-21 15:00N 55°41' E 012°36'0 0.0
2017-Jul-21 14:30N 55°41' E 012°36'0 0.0
2017-Jul-21 14:00N 55°41' E 012°36'0 0.0
2017-Jul-21 13:30N 55°41' E 012°36'0 0.0
2017-Jul-21 13:00N 55°41' E 012°36'0 0.0
2017-Jul-21 12:30N 55°41' E 012°36'0 0.0
2017-Jul-21 12:00N 55°41' E 012°36'0 0.0
2017-Jul-21 11:30N 55°41' E 012°36'0 0.0
2017-Jul-21 11:00N 55°41' E 012°36'0 0.0
2017-Jul-21 10:30N 55°41' E 012°36'0 0.0
2017-Jul-21 10:00N 55°41' E 012°36'0 0.0
2017-Jul-21 09:30N 55°41' E 012°36'0 0.0
2017-Jul-21 09:00N 55°41' E 012°36'0 0.0
2017-Jul-21 08:30N 55°41' E 012°36'0 0.2
2017-Jul-21 08:01N 55°41' E 012°36'2 4.1
2017-Jul-21 07:31N 55°43' E 012°38'2 4.7
2017-Jul-21 07:01N 55°45' E 012°40'3 5.3
2017-Jul-21 06:31N 55°48' E 012°40'3 6.6
2017-Jul-21 06:00N 55°51' E 012°40'3 6.5
2017-Jul-21 05:31N 55°54' E 012°39'3 6.7
2017-Jul-21 05:01N 55°57' E 012°40'3 6.6
2017-Jul-21 04:30N 56°01' E 012°40'3 5.6
2017-Jul-21 04:01N 56°03' E 012°38'2 4.5
2017-Jul-21 03:31N 56°05' E 012°35'2 3.4
2017-Jul-21 03:01N 56°06' E 012°33'2 3.2
2017-Jul-21 02:31N 56°07' E 012°30'2 3.4
2017-Jul-21 02:01N 56°08' E 012°28'2 4.5
2017-Jul-21 01:31N 56°09' E 012°24'3 5.3
2017-Jul-21 01:01N 56°10' E 012°20'3 5.1
2017-Jul-21 00:30N 56°11' E 012°16'3 4.9
2017-Jul-20 23:59N 56°12' E 012°12'2 4.4
2017-Jul-20 23:28N 56°13' E 012°08'2 4.5
2017-Jul-20 23:00N 56°13' E 012°04'2 4.5
2017-Jul-20 22:30N 56°13' E 011°60'2 4.1
2017-Jul-20 22:01N 56°13' E 011°56'2 4.5
2017-Jul-20 21:28N 56°14' E 011°52'3 5.1
2017-Jul-20 20:57N 56°14' E 011°47'6 4.5
2017-Jul-20 19:42N 56°15' E 011°37'1 4.5
2017-Jul-20 19:22N 56°14' E 011°35'2 4.6
2017-Jul-20 18:55N 56°14' E 011°31'1 3.2
2017-Jul-20 18:29N 56°14' E 011°29'1 2.4
2017-Jul-20 18:00N 56°15' E 011°28'20 6.6
2017-Jul-20 14:53N 56°33' E 011°46'6 6.6
2017-Jul-20 13:57N 56°39' E 011°52'5 5.8
2017-Jul-20 13:08N 56°43' E 011°55'1 6.2
2017-Jul-20 12:59N 56°44' E 011°56'11 5.1
2017-Jul-20 10:52N 56°54' E 012°04'1 3.3
2017-Jul-20 10:28N 56°55' E 012°05'2 3.1
2017-Jul-20 09:50N 56°57' E 012°07'4 4.0
2017-Jul-20 08:47N 57°00' E 012°11'3 2.8
2017-Jul-20 07:51N 57°03' E 012°12'2 0.9
2017-Jul-20 05:30N 57°05' E 012°14'0 0.0
2017-Jul-20 05:00N 57°05' E 012°14'0 0.0
2017-Jul-20 04:21N 57°05' E 012°14'0 0.0
2017-Jul-20 03:54N 57°05' E 012°14'0 0.0
2017-Jul-20 03:27N 57°05' E 012°14'0 0.0
2017-Jul-20 02:57N 57°05' E 012°14'0 0.0
2017-Jul-19 23:12N 57°05' E 012°14'0 0.0
2017-Jul-19 23:00N 57°05' E 012°14'0 0.0
2017-Jul-19 22:30N 57°05' E 012°14'0 0.0
2017-Jul-19 22:00N 57°05' E 012°14'0 0.0
2017-Jul-19 21:30N 57°05' E 012°14'0 0.0
2017-Jul-19 21:00N 57°05' E 012°14'0 0.0
2017-Jul-19 20:30N 57°05' E 012°14'0 0.0
2017-Jul-19 19:57N 57°05' E 012°14'0 0.0
2017-Jul-19 19:30N 57°05' E 012°14'0 0.0
2017-Jul-19 19:00N 57°05' E 012°14'0 0.0
2017-Jul-19 18:30N 57°05' E 012°14'0 0.0
2017-Jul-19 17:42N 57°05' E 012°14'0 0.1
2017-Jul-19 17:30N 57°05' E 012°14'8 0.5
2017-Jul-19 00:40N 57°08' E 011°60'1 2.8
2017-Jul-19 00:23N 57°08' E 011°59'3 3.0
2017-Jul-18 23:24N 57°11' E 011°56'2 4.2
2017-Jul-18 22:55N 57°12' E 011°54'2 3.9
2017-Jul-18 22:24N 57°14' E 011°52'1 3.5
2017-Jul-18 22:00N 57°16' E 011°51'2 4.5
2017-Jul-18 21:30N 57°17' E 011°49'2 4.1
2017-Jul-18 20:59N 57°19' E 011°46'2 4.9
2017-Jul-18 20:30N 57°21' E 011°43'2 4.1
2017-Jul-18 20:00N 57°22' E 011°41'2 4.3
2017-Jul-18 19:30N 57°24' E 011°38'2 4.8
2017-Jul-18 19:00N 57°26' E 011°35'2 4.8
2017-Jul-18 18:30N 57°27' E 011°32'3 5.3
2017-Jul-18 18:00N 57°30' E 011°29'3 5.6
2017-Jul-18 17:30N 57°32' E 011°26'3 6.5
2017-Jul-18 17:00N 57°34' E 011°22'3 6.3
2017-Jul-18 16:29N 57°36' E 011°17'4 7.1
2017-Jul-18 15:59N 57°39' E 011°13'4 7.7
2017-Jul-18 15:29N 57°42' E 011°08'4 8.8
2017-Jul-18 15:00N 57°45' E 011°03'10 9.3
2017-Jul-18 13:58N 57°53' E 010°52'6 9.6
2017-Jul-18 13:21N 57°57' E 010°45'4 9.1
2017-Jul-18 12:56N 58°00' E 010°40'5 8.5
2017-Jul-18 12:22N 58°04' E 010°34'7 7.9
2017-Jul-18 11:30N 58°09' E 010°26'4 7.5
2017-Jul-18 10:57N 58°12' E 010°21'15 4.7
2017-Jul-18 07:48N 58°23' E 010°01'2 5.5
2017-Jul-18 07:30N 58°21' E 009°60'180 7.7
2017-Jul-17 08:08N 56°01' E 006°29'2 8.3
2017-Jul-17 07:53N 55°60' E 006°27'3 8.9
2017-Jul-17 07:30N 55°57' E 006°24'4 8.0
2017-Jul-17 06:59N 55°53' E 006°20'4 8.0
2017-Jul-17 06:29N 55°50' E 006°16'  

Dump ship's entire track history